createdAt,value
2024-03-26T00:01:44.755Z,99114.35
2024-03-26T00:04:12.736Z,99119.40
2024-03-26T00:06:40.730Z,99117.39
2024-03-26T00:09:09.268Z,99122.20
2024-03-26T00:11:37.332Z,99125.46
2024-03-26T00:14:05.328Z,99124.41
2024-03-26T00:16:33.407Z,99130.59
2024-03-26T00:19:01.353Z,99133.02
2024-03-26T00:21:29.339Z,99136.16
2024-03-26T00:23:57.441Z,99143.23
2024-03-26T00:26:25.497Z,99148.34
2024-03-26T00:28:54.155Z,99151.47
2024-03-26T00:31:22.091Z,99157.02
2024-03-26T00:33:50.834Z,99156.95
2024-03-26T00:36:18.782Z,99159.30
2024-03-26T00:38:46.743Z,99163.59
2024-03-26T00:41:14.695Z,99161.52
2024-03-26T00:43:42.824Z,99161.18
2024-03-26T00:46:11.075Z,99167.21
2024-03-26T00:48:39.049Z,99168.73
2024-03-26T00:51:07.474Z,99175.52
2024-03-26T00:53:35.653Z,99175.60
2024-03-26T00:56:03.819Z,99173.14
2024-03-26T00:58:31.920Z,99172.73
2024-03-26T01:00:59.908Z,99175.50
2024-03-26T01:03:27.907Z,99176.37
2024-03-26T01:05:57.476Z,99184.33
2024-03-26T01:08:25.384Z,99182.89
2024-03-26T01:10:54.163Z,99193.63
2024-03-26T01:13:22.820Z,99196.41
2024-03-26T01:15:50.912Z,99202.73
2024-03-26T01:18:19.101Z,99208.60
2024-03-26T01:20:47.112Z,99213.38
2024-03-26T01:23:15.170Z,99210.54
2024-03-26T01:25:43.104Z,99213.70
2024-03-26T01:28:11.063Z,99217.81
2024-03-26T01:30:39.061Z,99218.79
2024-03-26T01:33:07.009Z,99224.34
2024-03-26T01:35:34.986Z,99228.38
2024-03-26T01:38:02.944Z,99230.33
2024-03-26T01:40:30.907Z,99234.32
2024-03-26T01:42:59.504Z,99236.45
2024-03-26T01:45:31.138Z,99236.98
2024-03-26T01:47:59.440Z,99239.52
2024-03-26T01:50:28.072Z,99242.27
2024-03-26T01:52:56.589Z,99246.31
2024-03-26T01:55:26.308Z,99251.05
2024-03-26T01:57:54.440Z,99258.88
2024-03-26T02:00:26.042Z,99264.16
2024-03-26T02:02:54.245Z,99267.42
2024-03-26T02:05:23.670Z,99267.67
2024-03-26T02:07:51.769Z,99269.25
2024-03-26T02:10:20.751Z,99265.35
2024-03-26T02:12:48.871Z,99276.04
2024-03-26T02:15:16.870Z,99279.79
2024-03-26T02:17:44.841Z,99281.62
2024-03-26T02:20:15.591Z,99287.08
2024-03-26T02:22:43.562Z,99292.38
2024-03-26T02:25:11.485Z,99295.77
2024-03-26T02:27:39.453Z,99299.77
2024-03-26T02:30:07.748Z,99299.13
2024-03-26T02:32:35.724Z,99300.34
2024-03-26T02:35:03.903Z,99305.64
2024-03-26T02:37:31.884Z,99308.09
2024-03-26T02:39:59.855Z,99310.64
2024-03-26T02:42:28.444Z,99312.93
2024-03-26T02:44:56.781Z,99316.39
2024-03-26T02:47:24.736Z,99315.34
2024-03-26T02:49:52.733Z,99316.60
2024-03-26T02:52:20.702Z,99318.34
2024-03-26T02:54:48.657Z,99317.43
2024-03-26T02:57:16.622Z,99323.27
2024-03-26T02:59:44.604Z,99326.23
2024-03-26T03:02:14.994Z,99332.32
2024-03-26T03:04:42.959Z,99329.98
2024-03-26T03:07:10.950Z,99332.55
2024-03-26T03:09:39.340Z,99332.34
2024-03-26T03:12:07.400Z,99336.35
2024-03-26T03:14:35.409Z,99340.73
2024-03-26T03:17:03.381Z,99347.63
2024-03-26T03:19:31.534Z,99352.20
2024-03-26T03:21:59.611Z,99359.60
2024-03-26T03:24:27.543Z,99362.48
2024-03-26T03:26:55.544Z,99360.48
2024-03-26T03:29:23.642Z,99368.07
2024-03-26T03:31:51.645Z,99375.19
2024-03-26T03:34:19.654Z,99379.98
2024-03-26T03:36:47.692Z,99385.02
2024-03-26T03:39:15.664Z,99389.75
2024-03-26T03:41:43.884Z,99389.02
2024-03-26T03:44:13.568Z,99397.73
2024-03-26T03:46:41.516Z,99401.63
2024-03-26T03:49:09.573Z,99410.66
2024-03-26T03:51:37.597Z,99415.83
2024-03-26T03:54:05.735Z,99419.19
2024-03-26T03:56:33.698Z,99419.99
2024-03-26T03:59:01.941Z,99430.27
2024-03-26T04:01:29.904Z,99433.67
2024-03-26T04:03:57.954Z,99439.05
2024-03-26T04:06:25.883Z,99442.41
2024-03-26T04:08:53.836Z,99445.13
2024-03-26T04:11:21.799Z,99448.07
2024-03-26T04:13:52.869Z,99450.33
2024-03-26T04:16:20.867Z,99450.91
2024-03-26T04:18:48.817Z,99451.53
2024-03-26T04:21:16.919Z,99452.63
2024-03-26T04:23:44.921Z,99452.92
2024-03-26T04:26:12.952Z,99456.95
2024-03-26T04:28:40.917Z,99460.15
2024-03-26T04:31:08.875Z,99460.77
2024-03-26T04:33:36.834Z,99464.58
2024-03-26T04:36:04.997Z,99468.10
2024-03-26T04:38:32.996Z,99478.98
2024-03-26T04:41:00.939Z,99481.77
2024-03-26T04:43:28.915Z,99488.09
2024-03-26T04:45:56.947Z,99489.77
2024-03-26T04:48:24.947Z,99494.58
2024-03-26T04:50:53.202Z,99495.44
2024-03-26T04:53:21.207Z,99495.12
2024-03-26T04:55:50.383Z,99502.72
2024-03-26T04:58:19.031Z,99511.86
2024-03-26T05:00:50.527Z,99509.91
2024-03-26T05:03:18.635Z,99510.67
2024-03-26T05:05:46.692Z,99514.44
2024-03-26T05:08:14.651Z,99519.02
2024-03-26T05:10:42.677Z,99523.96
2024-03-26T05:13:10.635Z,99523.33
2024-03-26T05:15:39.374Z,99529.52
2024-03-26T05:18:07.645Z,99529.50
2024-03-26T05:20:36.676Z,99536.15
2024-03-26T05:23:04.823Z,99544.70
2024-03-26T05:25:32.818Z,99543.80
2024-03-26T05:28:00.758Z,99542.68
2024-03-26T05:30:29.048Z,99539.95
2024-03-26T05:32:57.389Z,99541.27
2024-03-26T05:35:25.553Z,99541.52
2024-03-26T05:37:55.726Z,99545.66
2024-03-26T05:40:23.826Z,99545.10
2024-03-26T05:42:52.072Z,99549.98
2024-03-26T05:45:20.029Z,99549.55
2024-03-26T05:47:48.227Z,99552.89
2024-03-26T05:50:16.261Z,99557.06
2024-03-26T05:52:44.235Z,99561.34
2024-03-26T05:55:12.187Z,99563.25
2024-03-26T05:57:40.208Z,99564.19
2024-03-26T06:00:09.792Z,99564.47
2024-03-26T06:02:37.831Z,99567.58
2024-03-26T06:05:06.118Z,99572.68
2024-03-26T06:07:34.104Z,99572.02
2024-03-26T06:10:02.283Z,99577.86
2024-03-26T06:12:30.364Z,99579.65
2024-03-26T06:14:58.330Z,99583.55
2024-03-26T06:17:26.448Z,99589.60
2024-03-26T06:19:54.584Z,99590.16
2024-03-26T06:22:22.767Z,99593.48
2024-03-26T06:24:50.708Z,99596.73
2024-03-26T06:27:18.720Z,99601.36
2024-03-26T06:29:46.741Z,99606.12
2024-03-26T06:32:14.726Z,99604.90
2024-03-26T06:34:42.951Z,99611.73
2024-03-26T06:37:11.272Z,99616.73
2024-03-26T06:39:39.403Z,99625.58
2024-03-26T06:42:07.776Z,99629.64
2024-03-26T06:44:35.952Z,99634.23
2024-03-26T06:47:03.975Z,99642.21
2024-03-26T06:49:31.982Z,99643.27
2024-03-26T06:51:59.989Z,99643.02
2024-03-26T06:54:28.153Z,99645.58
2024-03-26T06:56:56.265Z,99652.39
2024-03-26T06:59:25.957Z,99648.08
2024-03-26T07:01:54.794Z,99652.06
2024-03-26T07:04:22.890Z,99652.52
2024-03-26T07:06:50.893Z,99652.92
2024-03-26T07:09:18.979Z,99651.02
2024-03-26T07:11:47.147Z,99653.84
2024-03-26T07:14:17.376Z,99656.86
2024-03-26T07:16:45.648Z,99656.05
2024-03-26T07:19:14.467Z,99661.34
2024-03-26T07:21:42.446Z,99659.27
2024-03-26T07:24:10.449Z,99657.55
2024-03-26T07:26:38.564Z,99652.88
2024-03-26T07:29:06.503Z,99652.36
2024-03-26T07:31:34.567Z,99657.61
2024-03-26T07:34:02.843Z,99661.17
2024-03-26T07:36:31.098Z,99659.58
2024-03-26T07:38:59.079Z,99660.05
2024-03-26T07:41:27.037Z,99655.36
2024-03-26T07:43:55.095Z,99655.36
2024-03-26T07:46:23.177Z,99661.30
2024-03-26T07:48:51.157Z,99660.77
2024-03-26T07:51:19.995Z,99663.84
2024-03-26T07:53:52.014Z,99661.69
2024-03-26T07:56:20.017Z,99662.36
2024-03-26T07:58:48.101Z,99663.91
2024-03-26T08:01:16.107Z,99667.14
2024-03-26T08:03:44.806Z,99668.02
2024-03-26T08:06:12.818Z,99665.40
2024-03-26T08:08:40.767Z,99672.45
2024-03-26T08:11:13.813Z,99674.23
2024-03-26T08:13:42.262Z,99672.59
2024-03-26T08:16:10.431Z,99672.23
2024-03-26T08:18:38.751Z,99670.09
2024-03-26T08:21:08.056Z,99672.33
2024-03-26T08:23:36.065Z,99671.91
2024-03-26T08:26:04.899Z,99674.55
2024-03-26T08:28:32.969Z,99674.79
2024-03-26T08:31:00.986Z,99675.48
2024-03-26T08:33:28.980Z,99674.44
2024-03-26T08:35:57.012Z,99682.83
2024-03-26T08:38:26.311Z,99683.67
2024-03-26T08:40:54.422Z,99681.54
2024-03-26T08:43:22.635Z,99679.13
2024-03-26T08:45:50.686Z,99683.11
2024-03-26T08:48:19.080Z,99687.40
2024-03-26T08:50:47.077Z,99683.74
2024-03-26T08:53:15.160Z,99679.94
2024-03-26T08:55:44.284Z,99673.77
2024-03-26T08:58:14.888Z,99672.46
2024-03-26T09:00:44.586Z,99674.94
2024-03-26T09:03:12.572Z,99680.19
2024-03-26T09:05:41.535Z,99675.41
2024-03-26T09:08:09.557Z,99673.68
2024-03-26T09:10:37.649Z,99672.41
2024-03-26T09:13:05.822Z,99672.84
2024-03-26T09:15:33.844Z,99678.13
2024-03-26T09:18:04.544Z,99675.48
2024-03-26T09:20:32.546Z,99677.46
2024-03-26T09:23:00.811Z,99678.70
2024-03-26T09:25:28.795Z,99678.49
2024-03-26T09:27:56.802Z,99669.23
2024-03-26T09:30:28.404Z,99680.02
2024-03-26T09:32:56.786Z,99674.48
2024-03-26T09:35:24.844Z,99673.52
2024-03-26T09:37:52.874Z,99669.13
2024-03-26T09:40:20.951Z,99670.67
2024-03-26T09:42:49.022Z,99673.81
2024-03-26T09:45:19.948Z,99673.40
2024-03-26T09:47:49.830Z,99670.95
2024-03-26T09:50:20.306Z,99675.05
2024-03-26T09:52:50.158Z,99675.69
2024-03-26T09:55:19.976Z,99678.98
2024-03-26T09:57:48.122Z,99679.22
2024-03-26T10:00:17.123Z,99681.14
2024-03-26T10:02:47.104Z,99677.17
2024-03-26T10:05:18.696Z,99678.36
2024-03-26T10:07:47.990Z,99676.84
2024-03-26T10:10:17.136Z,99671.08
2024-03-26T10:12:45.249Z,99671.73
2024-03-26T10:15:13.292Z,99668.30
2024-03-26T10:17:41.313Z,99672.20
2024-03-26T10:20:12.459Z,99681.98
2024-03-26T10:22:40.412Z,99677.07
2024-03-26T10:25:08.429Z,99676.17
2024-03-26T10:27:36.426Z,99671.03
2024-03-26T10:30:11.391Z,99672.57
2024-03-26T10:32:39.921Z,99672.90
2024-03-26T10:35:09.822Z,99670.48
2024-03-26T10:37:38.444Z,99670.84
2024-03-26T10:40:11.448Z,99668.74
2024-03-26T10:43:00.268Z,99667.48
2024-03-26T10:45:41.230Z,99668.22
2024-03-26T10:48:18.109Z,99664.77
2024-03-26T10:50:48.160Z,99665.91
2024-03-26T10:53:19.786Z,99668.29
2024-03-26T10:55:50.995Z,99668.25
2024-03-26T10:58:19.237Z,99670.81
2024-03-26T11:00:49.138Z,99666.71
2024-03-26T11:03:18.088Z,99659.82
2024-03-26T11:05:46.973Z,99658.67
2024-03-26T11:08:19.520Z,99655.98
2024-03-26T11:11:19.873Z,99654.38
2024-03-26T11:13:47.798Z,99658.36
2024-03-26T11:16:50.060Z,99655.59
2024-03-26T11:19:21.801Z,99650.09
2024-03-26T11:21:52.122Z,99642.99
2024-03-26T11:24:31.871Z,99648.88
2024-03-26T11:27:02.079Z,99650.33
2024-03-26T11:29:31.588Z,99651.55
2024-03-26T11:32:01.292Z,99658.38
2024-03-26T11:34:32.109Z,99660.65
2024-03-26T11:37:01.275Z,99663.96
2024-03-26T11:39:30.220Z,99657.61
2024-03-26T11:41:58.617Z,99656.80
2024-03-26T11:44:26.592Z,99659.70
2024-03-26T11:46:58.526Z,99654.52
2024-03-26T11:49:26.549Z,99649.43
2024-03-26T11:51:54.589Z,99651.10
2024-03-26T11:54:22.612Z,99654.01
2024-03-26T11:56:53.770Z,99648.98
2024-03-26T11:59:25.337Z,99644.98
2024-03-26T12:01:53.311Z,99639.96
2024-03-26T12:04:21.876Z,99639.33
2024-03-26T12:06:50.022Z,99639.66
2024-03-26T12:09:18.057Z,99638.83
2024-03-26T12:11:47.321Z,99636.73
2024-03-26T12:14:16.840Z,99646.27
2024-03-26T12:16:44.970Z,99648.37
2024-03-26T12:19:12.956Z,99649.23
2024-03-26T12:21:40.980Z,99648.92
2024-03-26T12:24:14.627Z,99650.67
2024-03-26T12:26:42.799Z,99648.00
2024-03-26T12:29:11.944Z,99650.27
2024-03-26T12:31:43.173Z,99652.23
2024-03-26T12:34:15.178Z,99655.33
2024-03-26T12:36:45.724Z,99659.50
2024-03-26T12:39:13.837Z,99651.11
2024-03-26T12:41:42.048Z,99650.77
2024-03-26T12:44:15.183Z,99655.47
2024-03-26T12:46:43.496Z,99655.19
2024-03-26T12:49:12.553Z,99656.80
2024-03-26T12:51:40.556Z,99657.35
2024-03-26T12:54:09.965Z,99654.71
2024-03-26T12:56:38.426Z,99649.23
2024-03-26T12:59:07.665Z,99652.27
2024-03-26T13:01:35.645Z,99649.70
2024-03-26T13:04:03.744Z,99650.70
2024-03-26T13:06:31.834Z,99653.67
2024-03-26T13:08:59.939Z,99652.70
2024-03-26T13:11:27.985Z,99644.29
2024-03-26T13:13:55.968Z,99648.55
2024-03-26T13:16:24.834Z,99649.83
2024-03-26T13:18:52.805Z,99652.52
2024-03-26T13:21:20.808Z,99660.03
2024-03-26T13:23:48.821Z,99662.16
2024-03-26T13:26:16.892Z,99660.13
2024-03-26T13:28:44.813Z,99658.64
2024-03-26T13:31:12.761Z,99656.85
2024-03-26T13:33:40.769Z,99658.52
2024-03-26T13:36:09.933Z,99658.52
2024-03-26T13:38:39.489Z,99658.04
2024-03-26T13:41:09.285Z,99654.56
2024-03-26T13:43:37.348Z,99651.95
2024-03-26T13:46:05.356Z,99650.14
2024-03-26T13:48:33.462Z,99649.03
2024-03-26T13:51:02.033Z,99650.41
2024-03-26T13:53:30.049Z,99650.31
2024-03-26T13:55:58.090Z,99649.58
2024-03-26T13:58:26.091Z,99648.27
2024-03-26T14:00:54.058Z,99654.23
2024-03-26T14:03:22.660Z,99655.75
2024-03-26T14:05:50.693Z,99652.31
2024-03-26T14:08:21.283Z,99659.83
2024-03-26T14:10:50.319Z,99660.45
2024-03-26T14:13:18.339Z,99664.14
2024-03-26T14:15:46.365Z,99658.98
2024-03-26T14:18:14.399Z,99661.48
2024-03-26T14:20:42.466Z,99658.87
2024-03-26T14:23:12.933Z,99656.52
2024-03-26T14:25:40.938Z,99657.59
2024-03-26T14:28:08.958Z,99655.15
2024-03-26T14:30:36.942Z,99651.09
2024-03-26T14:33:05.391Z,99647.71
2024-03-26T14:35:33.414Z,99650.35
2024-03-26T14:38:01.511Z,99652.57
2024-03-26T14:40:29.522Z,99654.41
2024-03-26T14:42:57.624Z,99657.30
2024-03-26T14:45:25.715Z,99655.80
2024-03-26T14:47:53.717Z,99655.05
2024-03-26T14:50:22.061Z,99651.73
2024-03-26T14:52:50.204Z,99648.45
2024-03-26T14:55:18.277Z,99652.25
2024-03-26T14:57:46.884Z,99650.97
2024-03-26T15:00:15.549Z,99648.74
2024-03-26T15:02:43.564Z,99648.48
2024-03-26T15:05:11.557Z,99647.73
2024-03-26T15:07:39.587Z,99652.05
2024-03-26T15:10:08.101Z,99652.80
2024-03-26T15:12:36.118Z,99652.09
2024-03-26T15:15:05.025Z,99655.66
2024-03-26T15:17:33.071Z,99654.51
2024-03-26T15:20:01.173Z,99655.38
2024-03-26T15:22:29.341Z,99651.02
2024-03-26T15:24:59.353Z,99658.80
2024-03-26T15:27:27.407Z,99656.59
2024-03-26T15:30:13.800Z,99658.50
2024-03-26T15:32:41.825Z,99662.20
2024-03-26T15:35:09.829Z,99659.98
2024-03-26T15:37:37.905Z,99658.84
2024-03-26T15:40:09.112Z,99659.05
2024-03-26T15:42:37.787Z,99654.25
2024-03-26T15:45:06.130Z,99656.31
2024-03-26T15:47:34.234Z,99658.07
2024-03-26T15:50:02.289Z,99660.20
2024-03-26T15:52:30.336Z,99658.45
2024-03-26T15:54:58.305Z,99653.48
2024-03-26T15:57:26.390Z,99656.07
2024-03-26T15:59:54.409Z,99656.83
2024-03-26T16:02:22.490Z,99661.10
2024-03-26T16:04:51.260Z,99662.34
2024-03-26T16:07:19.299Z,99663.36
2024-03-26T16:10:04.146Z,99664.52
2024-03-26T16:12:36.757Z,99662.79
2024-03-26T16:15:05.479Z,99664.40
2024-03-26T16:17:33.488Z,99663.63
2024-03-26T16:20:01.691Z,99665.61
2024-03-26T16:22:30.245Z,99663.58
2024-03-26T16:24:58.552Z,99666.17
2024-03-26T16:27:26.703Z,99668.02
2024-03-26T16:29:55.139Z,99670.39
2024-03-26T16:32:23.200Z,99674.19
2024-03-26T16:34:51.547Z,99675.02
2024-03-26T16:37:19.552Z,99673.43
2024-03-26T16:39:47.528Z,99673.75
2024-03-26T16:42:15.531Z,99677.16
2024-03-26T16:44:43.584Z,99676.38
2024-03-26T16:47:11.656Z,99675.73
2024-03-26T16:49:39.689Z,99675.52
2024-03-26T16:52:08.606Z,99678.53
2024-03-26T16:54:36.676Z,99681.98
2024-03-26T16:57:05.031Z,99682.09
2024-03-26T16:59:34.412Z,99680.14
2024-03-26T17:02:03.648Z,99680.73
2024-03-26T17:08:08.069Z,99688.25
2024-03-26T17:10:36.416Z,99689.27
2024-03-26T17:13:04.521Z,99691.14
2024-03-26T17:15:32.672Z,99694.84
2024-03-26T17:18:00.764Z,99695.81
2024-03-26T17:20:28.866Z,99696.73
2024-03-26T17:22:56.873Z,99692.55
2024-03-26T17:25:27.035Z,99692.90
2024-03-26T17:27:55.117Z,99691.09
2024-03-26T17:30:23.464Z,99688.67
2024-03-26T17:32:51.515Z,99689.06
2024-03-26T17:35:19.598Z,99689.04
2024-03-26T17:37:49.268Z,99689.91
2024-03-26T17:40:17.938Z,99690.88
2024-03-26T17:42:46.171Z,99692.14
2024-03-26T17:45:14.762Z,99695.00
2024-03-26T17:47:43.163Z,99695.77
2024-03-26T17:50:11.218Z,99699.74
2024-03-26T17:52:39.255Z,99707.64
2024-03-26T17:55:07.698Z,99709.65
2024-03-26T17:57:35.739Z,99714.26
2024-03-26T18:00:04.600Z,99715.61
2024-03-26T18:02:32.630Z,99712.84
2024-03-26T18:05:01.436Z,99715.30
2024-03-26T18:07:29.561Z,99714.39
2024-03-26T18:09:57.633Z,99718.27
2024-03-26T18:12:25.727Z,99719.02
2024-03-26T18:14:53.714Z,99718.82
2024-03-26T18:17:22.679Z,99719.31
2024-03-26T18:19:50.667Z,99718.29
2024-03-26T18:22:18.830Z,99716.08
2024-03-26T18:24:49.023Z,99714.88
2024-03-26T18:27:17.704Z,99720.73
2024-03-26T18:29:45.717Z,99717.91
2024-03-26T18:32:13.741Z,99721.48
2024-03-26T18:34:41.764Z,99715.15
2024-03-26T18:37:09.794Z,99718.43
2024-03-26T18:39:37.824Z,99717.69
2024-03-26T18:42:06.012Z,99719.64
2024-03-26T18:44:34.021Z,99720.50
2024-03-26T18:47:02.136Z,99718.93
2024-03-26T18:49:31.041Z,99714.82
2024-03-26T18:52:00.378Z,99712.60
2024-03-26T18:54:28.437Z,99723.45
2024-03-26T18:56:56.436Z,99725.77
2024-03-26T18:59:27.508Z,99730.95
2024-03-26T19:01:55.910Z,99730.72
2024-03-26T19:04:23.926Z,99727.65
2024-03-26T19:06:52.398Z,99726.98
2024-03-26T19:09:20.491Z,99727.80
2024-03-26T19:11:48.542Z,99734.11
2024-03-26T19:14:16.544Z,99736.80
2024-03-26T19:16:44.546Z,99734.70
2024-03-26T19:19:12.584Z,99735.88
2024-03-26T19:21:40.594Z,99733.70
2024-03-26T19:24:08.693Z,99731.41
2024-03-26T19:26:36.823Z,99725.89
2024-03-26T19:29:04.949Z,99723.17
2024-03-26T19:31:32.921Z,99730.17
2024-03-26T19:34:01.103Z,99729.99
2024-03-26T19:36:29.193Z,99727.92
2024-03-26T19:38:57.550Z,99726.83
2024-03-26T19:41:25.689Z,99722.39
2024-03-26T19:43:53.702Z,99724.59
2024-03-26T19:46:21.814Z,99723.50
2024-03-26T19:48:50.659Z,99726.02
2024-03-26T19:51:18.701Z,99723.91
2024-03-26T19:53:46.705Z,99718.86
2024-03-26T19:56:15.907Z,99716.69
2024-03-26T19:58:43.920Z,99713.02
2024-03-26T20:01:13.022Z,99714.00
2024-03-26T20:03:41.045Z,99712.36
2024-03-26T20:06:11.365Z,99715.82
2024-03-26T20:08:43.851Z,99716.03
2024-03-26T20:11:13.184Z,99723.99
2024-03-26T20:13:42.424Z,99727.16
2024-03-26T20:16:12.465Z,99727.67
2024-03-26T20:18:40.515Z,99733.24
2024-03-26T20:21:08.899Z,99731.92
2024-03-26T20:23:37.684Z,99737.21
2024-03-26T20:26:08.211Z,99732.05
2024-03-26T20:28:36.897Z,99729.00
2024-03-26T20:31:12.817Z,99725.80
2024-03-26T20:33:42.145Z,99726.80
2024-03-26T20:36:16.851Z,99729.27
2024-03-26T20:38:45.407Z,99724.98
2024-03-26T20:41:13.408Z,99729.70
2024-03-26T20:43:41.464Z,99731.90
2024-03-26T20:46:10.327Z,99726.86
2024-03-26T20:48:38.451Z,99727.73
2024-03-26T20:51:13.733Z,99732.47
2024-03-26T20:53:41.780Z,99728.06
2024-03-26T20:56:09.830Z,99729.41
2024-03-26T20:58:38.028Z,99731.65
2024-03-26T21:01:06.138Z,99729.77
2024-03-26T21:03:36.542Z,99732.70
2024-03-26T21:06:06.314Z,99730.44
2024-03-26T21:08:35.458Z,99729.50
2024-03-26T21:11:13.371Z,99733.09
2024-03-26T21:13:41.406Z,99733.80
2024-03-26T21:16:14.061Z,99734.92
2024-03-26T21:18:49.024Z,99737.70
2024-03-26T21:21:18.710Z,99736.33
2024-03-26T21:23:48.812Z,99731.73
2024-03-26T21:26:18.916Z,99730.91
2024-03-26T21:28:47.621Z,99734.39
2024-03-26T21:31:15.768Z,99738.54
2024-03-26T21:33:43.982Z,99737.25
2024-03-26T21:36:13.476Z,99738.73
2024-03-26T21:38:41.570Z,99737.17
2024-03-26T21:41:12.068Z,99734.75
2024-03-26T21:43:40.104Z,99739.42
2024-03-26T21:46:08.083Z,99734.95
2024-03-26T21:48:36.905Z,99732.39
2024-03-26T21:51:05.626Z,99732.80
2024-03-26T21:53:33.660Z,99738.08
2024-03-26T21:56:11.780Z,99739.84
2024-03-26T21:58:39.868Z,99740.41
2024-03-26T22:01:14.508Z,99734.48
2024-03-26T22:03:43.673Z,99738.14
2024-03-26T22:06:12.926Z,99740.84
2024-03-26T22:08:42.542Z,99747.70
2024-03-26T22:11:12.487Z,99750.02
2024-03-26T22:13:43.768Z,99754.33
2024-03-26T22:16:11.869Z,99757.64
2024-03-26T22:18:39.960Z,99766.66
2024-03-26T22:21:08.044Z,99768.54
2024-03-26T22:23:36.100Z,99769.13
2024-03-26T22:26:05.699Z,99772.54
2024-03-26T22:28:34.888Z,99776.19
2024-03-26T22:31:03.905Z,99783.71
2024-03-26T22:33:32.195Z,99785.58
2024-03-26T22:36:00.387Z,99784.75
2024-03-26T22:38:29.357Z,99784.98
2024-03-26T22:40:58.793Z,99782.07
2024-03-26T22:43:28.948Z,99786.58
2024-03-26T22:46:00.651Z,99785.45
2024-03-26T22:48:32.383Z,99786.40
2024-03-26T22:51:01.757Z,99788.55
2024-03-26T22:53:29.877Z,99789.79
2024-03-26T22:56:02.836Z,99779.80
2024-03-26T22:58:30.972Z,99778.64
2024-03-26T23:00:59.085Z,99771.05
2024-03-26T23:03:27.834Z,99770.05
2024-03-26T23:06:03.124Z,99761.45
2024-03-26T23:08:31.565Z,99755.52
2024-03-26T23:10:59.729Z,99752.67
2024-03-26T23:13:28.557Z,99749.37
2024-03-26T23:16:00.983Z,99752.70
2024-03-26T23:18:29.197Z,99748.14
2024-03-26T23:20:57.516Z,99735.59
2024-03-26T23:23:26.013Z,99734.81
2024-03-26T23:25:54.051Z,99734.91
2024-03-26T23:28:22.199Z,99731.13
2024-03-26T23:30:50.306Z,99732.30
2024-03-26T23:33:18.693Z,99732.27
2024-03-26T23:35:46.834Z,99738.55
2024-03-26T23:38:15.610Z,99739.37
2024-03-26T23:40:43.658Z,99743.69
2024-03-26T23:43:11.702Z,99743.81
2024-03-26T23:45:39.878Z,99742.25
2024-03-26T23:48:08.217Z,99737.11
2024-03-26T23:50:36.293Z,99730.83
2024-03-26T23:53:04.682Z,99730.92
2024-03-26T23:55:33.188Z,99731.48
2024-03-26T23:58:01.839Z,99731.54
